sensor_id;sensor_type;location;lat;lon;timestamp;pressure;altitude;pressure_sealevel;temperature;humidity
64158;BME280;50449;51.528;5.076;2023-07-16T00:02:00;100762.34;;;26.58;36.97
64158;BME280;50449;51.528;5.076;2023-07-16T00:04:26;100763.84;;;26.55;36.83
64158;BME280;50449;51.528;5.076;2023-07-16T00:06:51;100763.75;;;26.51;36.88
64158;BME280;50449;51.528;5.076;2023-07-16T00:09:17;100765.25;;;26.49;37.30
64158;BME280;50449;51.528;5.076;2023-07-16T00:11:42;100765.91;;;26.46;37.09
64158;BME280;50449;51.528;5.076;2023-07-16T00:14:09;100774.94;;;26.43;37.18
64158;BME280;50449;51.528;5.076;2023-07-16T00:16:35;100770.09;;;26.40;36.85
64158;BME280;50449;51.528;5.076;2023-07-16T00:19:00;100760.88;;;26.36;36.89
64158;BME280;50449;51.528;5.076;2023-07-16T00:21:25;100769.53;;;26.34;37.01
64158;BME280;50449;51.528;5.076;2023-07-16T00:23:51;100770.59;;;26.29;37.14
64158;BME280;50449;51.528;5.076;2023-07-16T00:26:16;100767.34;;;26.27;37.09
64158;BME280;50449;51.528;5.076;2023-07-16T00:28:42;100773.59;;;26.24;37.23
64158;BME280;50449;51.528;5.076;2023-07-16T00:31:07;100774.28;;;26.21;37.38
64158;BME280;50449;51.528;5.076;2023-07-16T00:33:33;100778.56;;;26.19;37.08
64158;BME280;50449;51.528;5.076;2023-07-16T00:35:58;100777.31;;;26.16;36.95
64158;BME280;50449;51.528;5.076;2023-07-16T00:38:24;100777.97;;;26.13;37.04
64158;BME280;50449;51.528;5.076;2023-07-16T00:40:49;100784.22;;;26.10;37.71
64158;BME280;50449;51.528;5.076;2023-07-16T00:43:15;100781.34;;;26.06;37.08
64158;BME280;50449;51.528;5.076;2023-07-16T00:45:41;100780.06;;;26.04;37.19
64158;BME280;50449;51.528;5.076;2023-07-16T00:48:07;100781.56;;;26.01;37.19
64158;BME280;50449;51.528;5.076;2023-07-16T00:50:36;100780.31;;;25.99;37.10
64158;BME280;50449;51.528;5.076;2023-07-16T00:53:08;100784.56;;;25.96;36.98
64158;BME280;50449;51.528;5.076;2023-07-16T00:55:35;100786.41;;;25.92;37.28
64158;BME280;50449;51.528;5.076;2023-07-16T00:58:06;100779.59;;;25.89;37.33
64158;BME280;50449;51.528;5.076;2023-07-16T01:00:36;100783.06;;;25.86;37.32
64158;BME280;50449;51.528;5.076;2023-07-16T01:03:05;100782.91;;;25.83;37.39
64158;BME280;50449;51.528;5.076;2023-07-16T01:05:36;100783.59;;;25.80;37.11
64158;BME280;50449;51.528;5.076;2023-07-16T01:08:06;100783.97;;;25.78;37.19
64158;BME280;50449;51.528;5.076;2023-07-16T01:10:33;100789.38;;;25.75;37.56
64158;BME280;50449;51.528;5.076;2023-07-16T01:13:00;100779.78;;;25.72;37.19
64158;BME280;50449;51.528;5.076;2023-07-16T01:15:25;100789.59;;;25.69;37.37
64158;BME280;50449;51.528;5.076;2023-07-16T01:17:51;100784.41;;;25.68;37.42
64158;BME280;50449;51.528;5.076;2023-07-16T01:20:16;100782.31;;;25.65;37.19
64158;BME280;50449;51.528;5.076;2023-07-16T01:28:11;100778.06;;;25.55;37.40
64158;BME280;50449;51.528;5.076;2023-07-16T01:30:43;100781.50;;;25.52;37.17
64158;BME280;50449;51.528;5.076;2023-07-16T01:33:12;100779.09;;;25.51;37.52
64158;BME280;50449;51.528;5.076;2023-07-16T01:35:40;100788.88;;;25.48;37.73
64158;BME280;50449;51.528;5.076;2023-07-16T01:38:06;100789.53;;;25.45;37.17
64158;BME280;50449;51.528;5.076;2023-07-16T01:40:32;100789.09;;;25.43;37.81
64158;BME280;50449;51.528;5.076;2023-07-16T01:42:57;100788.16;;;25.39;37.62
64158;BME280;50449;51.528;5.076;2023-07-16T01:45:23;100782.97;;;25.37;37.39
64158;BME280;50449;51.528;5.076;2023-07-16T01:47:59;100790.81;;;25.35;37.61
64158;BME280;50449;51.528;5.076;2023-07-16T01:50:26;100794.25;;;25.32;37.31
64158;BME280;50449;51.528;5.076;2023-07-16T01:52:52;100791.03;;;25.30;37.85
64158;BME280;50449;51.528;5.076;2023-07-16T01:55:17;100789.75;;;25.28;37.47
64158;BME280;50449;51.528;5.076;2023-07-16T01:57:42;100782.94;;;25.25;37.42
64158;BME280;50449;51.528;5.076;2023-07-16T02:00:08;100779.72;;;25.23;37.97
64158;BME280;50449;51.528;5.076;2023-07-16T02:02:34;100782.00;;;25.21;37.80
64158;BME280;50449;51.528;5.076;2023-07-16T02:04:59;100782.69;;;25.18;37.69
64158;BME280;50449;51.528;5.076;2023-07-16T02:07:25;100783.03;;;25.16;37.84
64158;BME280;50449;51.528;5.076;2023-07-16T02:09:50;100775.38;;;25.13;37.55
64158;BME280;50449;51.528;5.076;2023-07-16T02:12:15;100778.84;;;25.10;37.64
64158;BME280;50449;51.528;5.076;2023-07-16T02:14:41;100777.56;;;25.08;38.17
64158;BME280;50449;51.528;5.076;2023-07-16T02:17:06;100779.84;;;25.05;37.73
64158;BME280;50449;51.528;5.076;2023-07-16T02:19:32;100779.38;;;25.03;37.74
64158;BME280;50449;51.528;5.076;2023-07-16T02:21:57;100780.88;;;25.01;38.01
64158;BME280;50449;51.528;5.076;2023-07-16T02:24:23;100780.41;;;24.99;38.00
64158;BME280;50449;51.528;5.076;2023-07-16T02:26:48;100778.31;;;24.96;37.90
64158;BME280;50449;51.528;5.076;2023-07-16T02:29:14;100781.75;;;24.93;38.29
64158;BME280;50449;51.528;5.076;2023-07-16T02:31:39;100782.09;;;24.91;38.03
64158;BME280;50449;51.528;5.076;2023-07-16T02:34:04;100783.91;;;24.87;38.07
64158;BME280;50449;51.528;5.076;2023-07-16T02:36:30;100792.56;;;24.86;37.85
64158;BME280;50449;51.528;5.076;2023-07-16T02:38:55;100783.78;;;24.83;38.19
64158;BME280;50449;51.528;5.076;2023-07-16T02:41:21;100790.78;;;24.81;37.91
64158;BME280;50449;51.528;5.076;2023-07-16T02:43:46;100795.03;;;24.78;38.00
64158;BME280;50449;51.528;5.076;2023-07-16T02:46:12;100791.81;;;24.76;38.11
64158;BME280;50449;51.528;5.076;2023-07-16T02:48:37;100802.38;;;24.74;38.22
64158;BME280;50449;51.528;5.076;2023-07-16T02:51:03;100798.34;;;24.72;38.10
64158;BME280;50449;51.528;5.076;2023-07-16T02:53:28;100801.78;;;24.69;38.17
64158;BME280;50449;51.528;5.076;2023-07-16T02:55:53;100801.31;;;24.67;38.59
64158;BME280;50449;51.528;5.076;2023-07-16T02:58:19;100802.78;;;24.64;38.52
64158;BME280;50449;51.528;5.076;2023-07-16T03:00:44;100807.03;;;24.61;38.22
64158;BME280;50449;51.528;5.076;2023-07-16T03:03:10;100806.56;;;24.59;37.99
64158;BME280;50449;51.528;5.076;2023-07-16T03:05:35;100810.00;;;24.56;38.51
64158;BME280;50449;51.528;5.076;2023-07-16T03:08:00;100807.91;;;24.53;38.38
64158;BME280;50449;51.528;5.076;2023-07-16T03:10:26;100809.38;;;24.51;38.28
64158;BME280;50449;51.528;5.076;2023-07-16T03:12:52;100806.94;;;24.49;38.29
64158;BME280;50449;51.528;5.076;2023-07-16T03:15:17;100814.78;;;24.47;38.80
64158;BME280;50449;51.528;5.076;2023-07-16T03:17:43;100811.84;;;24.44;38.56
64158;BME280;50449;51.528;5.076;2023-07-16T03:20:08;100809.75;;;24.40;38.57
64158;BME280;50449;51.528;5.076;2023-07-16T03:22:35;100810.06;;;24.39;38.75
64158;BME280;50449;51.528;5.076;2023-07-16T03:25:00;100815.13;;;24.37;38.58
64158;BME280;50449;51.528;5.076;2023-07-16T03:27:26;100817.41;;;24.35;38.71
64158;BME280;50449;51.528;5.076;2023-07-16T03:29:51;100824.06;;;24.34;38.38
64158;BME280;50449;51.528;5.076;2023-07-16T03:32:17;100824.75;;;24.31;38.46
64158;BME280;50449;51.528;5.076;2023-07-16T03:34:42;100828.97;;;24.28;38.41
64158;BME280;50449;51.528;5.076;2023-07-16T03:37:07;100822.19;;;24.26;38.45
64158;BME280;50449;51.528;5.076;2023-07-16T03:39:33;100827.22;;;24.24;38.80
64158;BME280;50449;51.528;5.076;2023-07-16T03:41:58;100836.16;;;24.21;38.75
64158;BME280;50449;51.528;5.076;2023-07-16T03:44:23;100823.84;;;24.18;38.50
64158;BME280;50449;51.528;5.076;2023-07-16T03:46:49;100830.50;;;24.17;38.40
64158;BME280;50449;51.528;5.076;2023-07-16T03:49:14;100841.06;;;24.15;38.35
64158;BME280;50449;51.528;5.076;2023-07-16T03:51:40;100841.75;;;24.12;38.92
64158;BME280;50449;51.528;5.076;2023-07-16T03:54:05;100844.81;;;24.10;38.58
64158;BME280;50449;51.528;5.076;2023-07-16T03:56:31;100851.00;;;24.07;38.32
64158;BME280;50449;51.528;5.076;2023-07-16T03:58:56;100846.97;;;24.05;38.64
64158;BME280;50449;51.528;5.076;2023-07-16T04:01:21;100852.47;;;24.05;38.79
64158;BME280;50449;51.528;5.076;2023-07-16T04:03:47;100851.19;;;24.02;38.37
64158;BME280;50449;51.528;5.076;2023-07-16T04:06:14;100851.88;;;23.99;38.67
64158;BME280;50449;51.528;5.076;2023-07-16T04:08:39;100851.38;;;23.97;38.30
64158;BME280;50449;51.528;5.076;2023-07-16T04:11:05;100848.94;;;23.95;38.52
64158;BME280;50449;51.528;5.076;2023-07-16T04:13:32;100865.00;;;23.93;38.59
64158;BME280;50449;51.528;5.076;2023-07-16T04:15:57;100863.72;;;23.91;38.36
64158;BME280;50449;51.528;5.076;2023-07-16T04:18:24;100875.09;;;23.89;38.35
64158;BME280;50449;51.528;5.076;2023-07-16T04:20:49;100870.22;;;23.86;38.78
64158;BME280;50449;51.528;5.076;2023-07-16T04:23:15;100872.53;;;23.84;38.48
64158;BME280;50449;51.528;5.076;2023-07-16T04:25:40;100869.28;;;23.82;38.54
64158;BME280;50449;51.528;5.076;2023-07-16T04:28:06;100874.31;;;23.80;38.84
64158;BME280;50449;51.528;5.076;2023-07-16T04:30:31;100883.25;;;23.77;38.80
64158;BME280;50449;51.528;5.076;2023-07-16T04:32:57;100883.56;;;23.75;38.44
64158;BME280;50449;51.528;5.076;2023-07-16T04:35:22;100885.84;;;23.73;38.22
64158;BME280;50449;51.528;5.076;2023-07-16T04:37:48;100880.94;;;23.70;38.36
64158;BME280;50449;51.528;5.076;2023-07-16T04:40:13;100883.22;;;23.68;38.26
64158;BME280;50449;51.528;5.076;2023-07-16T04:42:38;100891.03;;;23.66;38.53
64158;BME280;50449;51.528;5.076;2023-07-16T04:45:05;100888.09;;;23.63;38.34
64158;BME280;50449;51.528;5.076;2023-07-16T04:47:31;100896.38;;;23.63;38.35
64158;BME280;50449;51.528;5.076;2023-07-16T04:49:58;100901.41;;;23.61;38.28
64158;BME280;50449;51.528;5.076;2023-07-16T04:52:24;100911.13;;;23.58;38.69
64158;BME280;50449;51.528;5.076;2023-07-16T04:54:49;100915.84;;;23.58;38.25
64158;BME280;50449;51.528;5.076;2023-07-16T04:57:15;100915.34;;;23.55;38.63
64158;BME280;50449;51.528;5.076;2023-07-16T04:59:40;100913.25;;;23.52;38.50
64158;BME280;50449;51.528;5.076;2023-07-16T05:02:06;100919.09;;;23.51;38.65
64158;BME280;50449;51.528;5.076;2023-07-16T05:04:33;100928.50;;;23.50;38.37
64158;BME280;50449;51.528;5.076;2023-07-16T05:06:58;100930.78;;;23.48;38.78
64158;BME280;50449;51.528;5.076;2023-07-16T05:09:23;100929.16;;;23.47;38.80
64158;BME280;50449;51.528;5.076;2023-07-16T05:11:49;100929.81;;;23.44;38.41
64158;BME280;50449;51.528;5.076;2023-07-16T05:14:14;100926.22;;;23.43;38.29
64158;BME280;50449;51.528;5.076;2023-07-16T05:16:40;100926.56;;;23.42;38.52
64158;BME280;50449;51.528;5.076;2023-07-16T05:19:05;100930.44;;;23.41;38.43
64158;BME280;50449;51.528;5.076;2023-07-16T05:21:30;100936.31;;;23.39;38.34
64158;BME280;50449;51.528;5.076;2023-07-16T05:23:56;100933.56;;;23.39;38.58
64158;BME280;50449;51.528;5.076;2023-07-16T05:26:21;100942.47;;;23.36;38.90
64158;BME280;50449;51.528;5.076;2023-07-16T05:28:47;100938.88;;;23.36;38.90
64158;BME280;50449;51.528;5.076;2023-07-16T05:31:12;100943.28;;;23.37;38.45
64158;BME280;50449;51.528;5.076;2023-07-16T05:33:37;100942.78;;;23.35;38.71
64158;BME280;50449;51.528;5.076;2023-07-16T05:36:03;100946.34;;;23.35;38.79
64158;BME280;50449;51.528;5.076;2023-07-16T05:38:28;100945.53;;;23.35;38.92
64158;BME280;50449;51.528;5.076;2023-07-16T05:41:00;100953.81;;;23.35;38.65
64158;BME280;50449;51.528;5.076;2023-07-16T05:43:26;100955.41;;;23.36;38.97
64158;BME280;50449;51.528;5.076;2023-07-16T05:45:51;100962.09;;;23.35;38.62
64158;BME280;50449;51.528;5.076;2023-07-16T05:48:17;100959.31;;;23.35;38.83
64158;BME280;50449;51.528;5.076;2023-07-16T05:50:44;100971.16;;;23.35;38.62
64158;BME280;50449;51.528;5.076;2023-07-16T05:53:10;100959.31;;;23.35;38.61
64158;BME280;50449;51.528;5.076;2023-07-16T05:55:35;100966.78;;;23.34;38.52
64158;BME280;50449;51.528;5.076;2023-07-16T05:58:01;100968.41;;;23.35;38.53
64158;BME280;50449;51.528;5.076;2023-07-16T06:00:26;100958.19;;;23.36;38.83
64158;BME280;50449;51.528;5.076;2023-07-16T06:02:51;100963.69;;;23.36;38.58
64158;BME280;50449;51.528;5.076;2023-07-16T06:05:17;100953.50;;;23.36;38.91
64158;BME280;50449;51.528;5.076;2023-07-16T06:07:43;100956.25;;;23.36;38.54
64158;BME280;50449;51.528;5.076;2023-07-16T06:10:08;100952.66;;;23.36;38.58
64158;BME280;50449;51.528;5.076;2023-07-16T06:12:34;100960.63;;;23.37;38.91
64158;BME280;50449;51.528;5.076;2023-07-16T06:15:00;100950.41;;;23.38;38.70
64158;BME280;50449;51.528;5.076;2023-07-16T06:17:25;100966.13;;;23.37;39.13
64158;BME280;50449;51.528;5.076;2023-07-16T06:19:50;100974.09;;;23.39;38.53
64158;BME280;50449;51.528;5.076;2023-07-16T06:22:17;100973.25;;;23.38;38.86
64158;BME280;50449;51.528;5.076;2023-07-16T06:24:43;100966.94;;;23.38;38.96
64158;BME280;50449;51.528;5.076;2023-07-16T06:27:08;100976.34;;;23.37;39.02
64158;BME280;50449;51.528;5.076;2023-07-16T06:29:33;100970.84;;;23.37;39.24
64158;BME280;50449;51.528;5.076;2023-07-16T06:31:59;100970.03;;;23.36;38.68
64158;BME280;50449;51.528;5.076;2023-07-16T06:34:25;100985.75;;;23.36;38.99
64158;BME280;50449;51.528;5.076;2023-07-16T06:36:50;100990.13;;;23.37;39.02
64158;BME280;50449;51.528;5.076;2023-07-16T06:39:16;100987.38;;;23.37;39.35
64158;BME280;50449;51.528;5.076;2023-07-16T06:41:42;100995.31;;;23.38;39.39
64158;BME280;50449;51.528;5.076;2023-07-16T06:44:07;100997.75;;;23.40;39.40
64158;BME280;50449;51.528;5.076;2023-07-16T06:46:33;101006.84;;;23.40;39.31
64158;BME280;50449;51.528;5.076;2023-07-16T06:48:58;101008.13;;;23.43;39.23
64158;BME280;50449;51.528;5.076;2023-07-16T06:51:24;101012.19;;;23.45;39.69
64158;BME280;50449;51.528;5.076;2023-07-16T06:53:49;101013.50;;;23.48;39.28
64158;BME280;50449;51.528;5.076;2023-07-16T06:56:15;101014.28;;;23.48;39.30
64158;BME280;50449;51.528;5.076;2023-07-16T06:58:40;101029.38;;;23.51;39.28
64158;BME280;50449;51.528;5.076;2023-07-16T07:01:06;101023.56;;;23.52;39.32
64158;BME280;50449;51.528;5.076;2023-07-16T07:03:31;101026.47;;;23.56;39.90
64158;BME280;50449;51.528;5.076;2023-07-16T07:06:01;101028.09;;;23.57;39.44
64158;BME280;50449;51.528;5.076;2023-07-16T07:08:27;101031.00;;;23.61;39.42
64158;BME280;50449;51.528;5.076;2023-07-16T07:10:52;101031.50;;;23.63;39.71
64158;BME280;50449;51.528;5.076;2023-07-16T07:13:18;101037.50;;;23.65;39.42
64158;BME280;50449;51.528;5.076;2023-07-16T07:15:43;101029.72;;;23.67;40.07
64158;BME280;50449;51.528;5.076;2023-07-16T07:18:09;101029.38;;;23.68;40.02
64158;BME280;50449;51.528;5.076;2023-07-16T07:20:34;101031.53;;;23.71;39.91
64158;BME280;50449;51.528;5.076;2023-07-16T07:23:00;101032.00;;;23.73;40.15
64158;BME280;50449;51.528;5.076;2023-07-16T07:25:28;101036.06;;;23.76;39.78
64158;BME280;50449;51.528;5.076;2023-07-16T07:27:53;101026.34;;;23.79;39.83
64158;BME280;50449;51.528;5.076;2023-07-16T07:30:19;101025.69;;;23.82;40.09
64158;BME280;50449;51.528;5.076;2023-07-16T07:32:45;101027.81;;;23.85;40.22
64158;BME280;50449;51.528;5.076;2023-07-16T07:35:10;101036.22;;;23.88;40.03
64158;BME280;50449;51.528;5.076;2023-07-16T07:37:36;101043.38;;;23.89;40.22
64158;BME280;50449;51.528;5.076;2023-07-16T07:40:02;101037.22;;;23.92;40.03
64158;BME280;50449;51.528;5.076;2023-07-16T07:42:29;101036.56;;;23.95;40.24
64158;BME280;50449;51.528;5.076;2023-07-16T07:44:54;101037.84;;;23.98;40.21
64158;BME280;50449;51.528;5.076;2023-07-16T07:47:20;101039.16;;;24.01;40.16
64158;BME280;50449;51.528;5.076;2023-07-16T07:49:45;101038.47;;;24.04;40.24
64158;BME280;50449;51.528;5.076;2023-07-16T07:52:11;101035.91;;;24.07;40.93
64158;BME280;50449;51.528;5.076;2023-07-16T07:54:36;101049.84;;;24.11;40.43
64158;BME280;50449;51.528;5.076;2023-07-16T07:57:03;101046.09;;;24.15;40.54
64158;BME280;50449;51.528;5.076;2023-07-16T07:59:29;101041.88;;;24.18;40.78
64158;BME280;50449;51.528;5.076;2023-07-16T08:01:55;101047.22;;;24.23;40.50
64158;BME280;50449;51.528;5.076;2023-07-16T08:04:20;101049.00;;;24.28;40.72
64158;BME280;50449;51.528;5.076;2023-07-16T08:06:46;101053.88;;;24.31;40.95
64158;BME280;50449;51.528;5.076;2023-07-16T08:09:11;101050.13;;;24.35;40.51
64158;BME280;50449;51.528;5.076;2023-07-16T08:11:36;101050.25;;;24.39;40.56
64158;BME280;50449;51.528;5.076;2023-07-16T08:14:02;101052.84;;;24.44;40.83
64158;BME280;50449;51.528;5.076;2023-07-16T08:16:27;101049.50;;;24.47;41.00
64158;BME280;50449;51.528;5.076;2023-07-16T08:18:53;101054.84;;;24.52;40.69
64158;BME280;50449;51.528;5.076;2023-07-16T08:21:18;101060.19;;;24.57;41.02
64158;BME280;50449;51.528;5.076;2023-07-16T08:23:46;101055.28;;;24.63;40.46
64158;BME280;50449;51.528;5.076;2023-07-16T08:26:12;101057.06;;;24.68;40.61
64158;BME280;50449;51.528;5.076;2023-07-16T08:28:38;101063.19;;;24.73;40.45
64158;BME280;50449;51.528;5.076;2023-07-16T08:31:03;101066.09;;;24.77;40.72
64158;BME280;50449;51.528;5.076;2023-07-16T08:33:28;101063.97;;;24.82;40.96
64158;BME280;50449;51.528;5.076;2023-07-16T08:35:54;101073.22;;;24.87;40.68
64158;BME280;50449;51.528;5.076;2023-07-16T08:38:19;101067.50;;;24.92;41.09
64158;BME280;50449;51.528;5.076;2023-07-16T08:40:47;101070.06;;;24.97;40.48
64158;BME280;50449;51.528;5.076;2023-07-16T08:43:13;101077.38;;;25.01;40.87
64158;BME280;50449;51.528;5.076;2023-07-16T08:45:40;101079.16;;;25.06;40.48
64158;BME280;50449;51.528;5.076;2023-07-16T08:48:10;101073.44;;;25.11;40.71
64158;BME280;50449;51.528;5.076;2023-07-16T08:50:36;101077.97;;;25.16;40.76
64158;BME280;50449;51.528;5.076;2023-07-16T08:53:04;101079.75;;;25.20;40.13
64158;BME280;50449;51.528;5.076;2023-07-16T08:55:30;101091.75;;;25.24;40.46
64158;BME280;50449;51.528;5.076;2023-07-16T08:57:56;101094.69;;;25.28;40.44
64158;BME280;50449;51.528;5.076;2023-07-16T09:00:23;101089.28;;;25.32;40.57
64158;BME280;50449;51.528;5.076;2023-07-16T09:02:52;101085.53;;;25.36;40.17
64158;BME280;50449;51.528;5.076;2023-07-16T09:05:20;101088.41;;;25.40;40.43
64158;BME280;50449;51.528;5.076;2023-07-16T09:07:46;101086.59;;;25.44;40.73
64158;BME280;50449;51.528;5.076;2023-07-16T09:10:11;101090.66;;;25.46;40.55
64158;BME280;50449;51.528;5.076;2023-07-16T09:12:45;101097.16;;;25.51;40.30
64158;BME280;50449;51.528;5.076;2023-07-16T09:15:11;101091.75;;;25.54;40.36
64158;BME280;50449;51.528;5.076;2023-07-16T09:17:37;101088.31;;;25.57;40.08
64158;BME280;50449;51.528;5.076;2023-07-16T09:20:04;101089.25;;;25.61;40.23
64158;BME280;50449;51.528;5.076;2023-07-16T09:22:31;101094.13;;;25.64;39.99
64158;BME280;50449;51.528;5.076;2023-07-16T09:24:56;101095.06;;;25.68;40.27
64158;BME280;50449;51.528;5.076;2023-07-16T09:27:28;101098.75;;;25.73;40.00
64158;BME280;50449;51.528;5.076;2023-07-16T09:29:54;101102.16;;;25.78;40.09
64158;BME280;50449;51.528;5.076;2023-07-16T09:32:19;101109.78;;;25.81;39.67
64158;BME280;50449;51.528;5.076;2023-07-16T09:34:49;101103.56;;;25.84;39.92
64158;BME280;50449;51.528;5.076;2023-07-16T09:37:15;101107.66;;;25.87;39.85
64158;BME280;50449;51.528;5.076;2023-07-16T09:39:45;101101.44;;;25.90;39.87
64158;BME280;50449;51.528;5.076;2023-07-16T09:42:11;101108.25;;;25.93;39.80
64158;BME280;50449;51.528;5.076;2023-07-16T09:44:37;101108.41;;;25.96;39.95
64158;BME280;50449;51.528;5.076;2023-07-16T09:47:03;101104.94;;;25.99;39.89
64158;BME280;50449;51.528;5.076;2023-07-16T09:49:29;101116.13;;;26.03;39.57
64158;BME280;50449;51.528;5.076;2023-07-16T09:51:59;101111.88;;;26.05;39.57
64158;BME280;50449;51.528;5.076;2023-07-16T09:54:31;101104.84;;;26.08;39.28
64158;BME280;50449;51.528;5.076;2023-07-16T09:56:58;101117.22;;;26.10;39.20
64158;BME280;50449;51.528;5.076;2023-07-16T09:59:29;101120.13;;;26.14;39.55
64158;BME280;50449;51.528;5.076;2023-07-16T10:01:56;101140.00;;;26.16;39.32
64158;BME280;50449;51.528;5.076;2023-07-16T10:04:24;101131.00;;;26.19;39.22
64158;BME280;50449;51.528;5.076;2023-07-16T10:06:59;101128.69;;;26.21;39.18
64158;BME280;50449;51.528;5.076;2023-07-16T10:09:54;101141.88;;;26.24;39.18
64158;BME280;50449;51.528;5.076;2023-07-16T10:12:23;101140.38;;;26.27;39.08
64158;BME280;50449;51.528;5.076;2023-07-16T10:14:50;101149.97;;;26.29;39.32
64158;BME280;50449;51.528;5.076;2023-07-16T10:17:24;101146.50;;;26.32;38.99
64158;BME280;50449;51.528;5.076;2023-07-16T10:20:08;101148.59;;;26.36;39.00
64158;BME280;50449;51.528;5.076;2023-07-16T10:22:38;101164.88;;;26.37;38.99
64158;BME280;50449;51.528;5.076;2023-07-16T11:19:20;101216.00;;;26.82;38.33
64158;BME280;50449;51.528;5.076;2023-07-16T11:21:45;101223.16;;;26.83;38.17
64158;BME280;50449;51.528;5.076;2023-07-16T11:24:14;101228.69;;;26.83;38.24
64158;BME280;50449;51.528;5.076;2023-07-16T11:26:52;101236.69;;;26.84;38.21
64158;BME280;50449;51.528;5.076;2023-07-16T11:29:17;101229.97;;;26.85;38.37
64158;BME280;50449;51.528;5.076;2023-07-16T11:31:43;101243.50;;;26.87;38.29
64158;BME280;50449;51.528;5.076;2023-07-16T11:34:13;101244.31;;;26.87;38.30
64158;BME280;50449;51.528;5.076;2023-07-16T11:36:38;101246.75;;;26.89;38.61
64158;BME280;50449;51.528;5.076;2023-07-16T11:39:04;101243.97;;;26.89;38.73
64158;BME280;50449;51.528;5.076;2023-07-16T11:41:30;101246.38;;;26.90;38.97
64158;BME280;50449;51.528;5.076;2023-07-16T11:43:59;101249.63;;;26.92;38.60
64158;BME280;50449;51.528;5.076;2023-07-16T11:46:31;101245.69;;;26.93;38.63
64158;BME280;50449;51.528;5.076;2023-07-16T11:48:57;101252.19;;;26.97;38.63
64158;BME280;50449;51.528;5.076;2023-07-16T11:51:22;101251.84;;;26.99;38.64
64158;BME280;50449;51.528;5.076;2023-07-16T11:53:48;101248.72;;;27.01;38.88
64158;BME280;50449;51.528;5.076;2023-07-16T11:56:13;101262.25;;;27.02;38.50
64158;BME280;50449;51.528;5.076;2023-07-16T11:58:39;101246.09;;;27.04;38.51
64158;BME280;50449;51.528;5.076;2023-07-16T12:01:04;101250.47;;;27.05;38.52
64158;BME280;50449;51.528;5.076;2023-07-16T12:03:30;101252.09;;;27.06;38.62
64158;BME280;50449;51.528;5.076;2023-07-16T12:05:55;101251.41;;;27.09;38.41
64158;BME280;50449;51.528;5.076;2023-07-16T12:08:20;101259.38;;;27.11;38.65
64158;BME280;50449;51.528;5.076;2023-07-16T12:10:46;101257.41;;;27.11;38.77
64158;BME280;50449;51.528;5.076;2023-07-16T12:13:11;101252.34;;;27.13;38.57
64158;BME280;50449;51.528;5.076;2023-07-16T12:15:37;101259.53;;;27.14;38.51
64158;BME280;50449;51.528;5.076;2023-07-16T12:18:02;101255.25;;;27.17;38.60
64158;BME280;50449;51.528;5.076;2023-07-16T12:20:28;101245.47;;;27.19;38.59
64158;BME280;50449;51.528;5.076;2023-07-16T12:22:53;101233.69;;;27.23;38.58
64158;BME280;50449;51.528;5.076;2023-07-16T12:25:19;101240.50;;;27.25;38.17
64158;BME280;50449;51.528;5.076;2023-07-16T12:27:45;101248.94;;;27.29;38.15
64158;BME280;50449;51.528;5.076;2023-07-16T12:30:10;101253.81;;;27.32;38.44
64158;BME280;50449;51.528;5.076;2023-07-16T12:32:36;101245.13;;;27.33;38.31
64158;BME280;50449;51.528;5.076;2023-07-16T12:35:01;101244.44;;;27.36;37.98
64158;BME280;50449;51.528;5.076;2023-07-16T12:37:28;101244.56;;;27.40;38.00
64158;BME280;50449;51.528;5.076;2023-07-16T12:39:54;101257.75;;;27.43;37.94
64158;BME280;50449;51.528;5.076;2023-07-16T12:42:19;101258.69;;;27.47;38.08
64158;BME280;50449;51.528;5.076;2023-07-16T12:44:45;101255.22;;;27.50;37.83
64158;BME280;50449;51.528;5.076;2023-07-16T12:47:11;101248.16;;;27.53;38.09
64158;BME280;50449;51.528;5.076;2023-07-16T12:49:36;101247.13;;;27.57;37.82
64158;BME280;50449;51.528;5.076;2023-07-16T12:52:02;101247.59;;;27.59;37.72
64158;BME280;50449;51.528;5.076;2023-07-16T12:54:27;101255.69;;;27.65;37.71
64158;BME280;50449;51.528;5.076;2023-07-16T12:56:55;101246.66;;;27.68;37.36
64158;BME280;50449;51.528;5.076;2023-07-16T12:59:20;101261.13;;;27.73;37.94
64158;BME280;50449;51.528;5.076;2023-07-16T13:01:45;101238.66;;;27.78;37.61
64158;BME280;50449;51.528;5.076;2023-07-16T13:04:11;101254.31;;;27.83;37.36
64158;BME280;50449;51.528;5.076;2023-07-16T13:06:36;101254.09;;;27.88;37.29
64158;BME280;50449;51.528;5.076;2023-07-16T13:09:02;101245.84;;;27.92;37.33
64158;BME280;50449;51.528;5.076;2023-07-16T13:11:28;101237.28;;;27.97;36.88
64158;BME280;50449;51.528;5.076;2023-07-16T13:13:53;101244.56;;;28.01;37.40
64158;BME280;50449;51.528;5.076;2023-07-16T13:16:19;101248.28;;;28.05;37.17
64158;BME280;50449;51.528;5.076;2023-07-16T13:18:44;101255.56;;;28.10;36.94
64158;BME280;50449;51.528;5.076;2023-07-16T13:21:10;101252.88;;;28.14;36.94
64158;BME280;50449;51.528;5.076;2023-07-16T13:23:35;101245.50;;;28.18;36.74
64158;BME280;50449;51.528;5.076;2023-07-16T13:26:01;101240.81;;;28.22;36.85
64158;BME280;50449;51.528;5.076;2023-07-16T13:28:26;101249.28;;;28.25;37.03
64158;BME280;50449;51.528;5.076;2023-07-16T13:30:53;101250.19;;;28.30;36.66
64158;BME280;50449;51.528;5.076;2023-07-16T13:33:19;101258.28;;;28.35;36.66
64158;BME280;50449;51.528;5.076;2023-07-16T13:35:44;101264.75;;;28.39;36.42
64158;BME280;50449;51.528;5.076;2023-07-16T13:38:10;101273.69;;;28.44;36.22
64158;BME280;50449;51.528;5.076;2023-07-16T13:40:35;101264.28;;;28.49;36.04
64158;BME280;50449;51.528;5.076;2023-07-16T13:43:01;101264.41;;;28.53;36.01
64158;BME280;50449;51.528;5.076;2023-07-16T13:45:26;101270.06;;;28.56;36.03